Time,TemperatureF,DewpointF,PressureIn,WindDirection,WindDirectionDegrees,WindSpeedMPH,WindSpeedGustMPH,Humidity,HourlyPrecipIn,Conditions,Clouds,dailyrainin,SolarRadiationWatts/m^2,SoftwareType,DateUTC
2014-01-14 00:00:00,39.3,35.5,29.64,South,171,0.0,0.0,86,0.00,,,0.00,0,WeatherCatV1.24B11,2014-01-14 05:00:00,
2014-01-14 00:01:00,39.3,35.5,29.64,South,171,0.0,0.0,86,0.00,,,0.00,0,WeatherCatV1.24B11,2014-01-14 05:01:00,
2014-01-14 00:02:00,39.2,35.4,29.64,South,171,0.0,0.0,86,0.00,,,0.00,0,WeatherCatV1.24B11,2014-01-14 05:02:00,
2014-01-14 00:07:00,39.1,35.6,29.64,South,171,0.0,0.0,87,0.00,,,0.00,0,WeatherCatV1.24B11,2014-01-14 05:07:00,
2014-01-14 00:12:00,39.1,35.6,29.63,South,171,0.0,0.0,87,0.00,,,0.00,0,WeatherCatV1.24B11,2014-01-14 05:12:00,
2014-01-14 00:17:00,38.9,35.4,29.63,South,171,0.0,0.0,87,0.00,,,0.00,0,WeatherCatV1.24B11,2014-01-14 05:17:00,
2014-01-14 00:22:00,38.9,35.4,29.62,South,171,0.0,0.0,87,0.00,,,0.00,0,WeatherCatV1.24B11,2014-01-14 05:22:00,
2014-01-14 00:27:00,38.9,35.4,29.62,South,171,0.0,0.0,87,0.00,,,0.00,0,WeatherCatV1.24B11,2014-01-14 05:27:00,
2014-01-14 00:32:00,38.9,35.4,29.62,South,171,0.0,0.0,87,0.00,,,0.00,0,WeatherCatV1.24B11,2014-01-14 05:32:00,
2014-01-14 00:37:00,38.8,35.3,29.61,South,171,0.0,0.0,87,0.00,,,0.00,0,WeatherCatV1.24B11,2014-01-14 05:37:00,
2014-01-14 00:42:00,38.7,35.2,29.61,South,171,0.0,0.0,87,0.00,,,0.00,0,WeatherCatV1.24B11,2014-01-14 05:42:00,
2014-01-14 00:47:00,38.7,35.5,29.62,South,171,0.0,0.0,88,0.00,,,0.00,0,WeatherCatV1.24B11,2014-01-14 05:47:00,
2014-01-14 00:52:00,38.6,35.4,29.62,South,171,0.0,0.0,88,0.00,,,0.00,0,WeatherCatV1.24B11,2014-01-14 05:52:00,
2014-01-14 00:57:00,38.5,35.3,29.61,South,171,0.0,0.0,88,0.00,,,0.00,0,WeatherCatV1.24B11,2014-01-14 05:57:00,
2014-01-14 01:02:00,38.4,35.2,29.61,South,171,0.0,0.0,88,0.00,,,0.00,0,WeatherCatV1.24B11,2014-01-14 06:02:00,
2014-01-14 01:07:00,38.4,35.2,29.60,South,171,0.0,0.0,88,0.00,,,0.00,0,WeatherCatV1.24B11,2014-01-14 06:07:00,
2014-01-14 01:12:00,38.3,35.1,29.60,South,171,0.0,0.0,88,0.00,,,0.00,0,WeatherCatV1.24B11,2014-01-14 06:12:00,
2014-01-14 01:17:00,38.3,35.3,29.59,South,171,0.0,0.0,89,0.00,,,0.00,0,WeatherCatV1.24B11,2014-01-14 06:17:00,
2014-01-14 01:22:00,38.3,35.3,29.60,South,171,0.0,0.0,89,0.00,,,0.00,0,WeatherCatV1.24B11,2014-01-14 06:22:00,
2014-01-14 01:27:00,38.3,35.3,29.60,South,171,0.0,0.0,89,0.00,,,0.00,0,WeatherCatV1.24B11,2014-01-14 06:27:00,
2014-01-14 01:32:00,38.2,35.2,29.60,South,171,0.0,0.0,89,0.00,,,0.00,0,WeatherCatV1.24B11,2014-01-14 06:32:00,
2014-01-14 01:37:00,38.2,35.2,29.60,South,171,0.0,0.0,89,0.00,,,0.00,0,WeatherCatV1.24B11,2014-01-14 06:37:00,
2014-01-14 01:38:00,38.2,35.2,29.61,South,171,0.0,0.0,89,0.00,,,0.00,0,WeatherCatV1.24B11,2014-01-14 06:38:00,
2014-01-14 01:43:00,38.2,35.2,29.61,South,171,0.0,0.0,89,0.00,,,0.00,0,WeatherCatV1.24B11,2014-01-14 06:43:00,
2014-01-14 01:48:00,38.2,35.2,29.61,South,171,0.0,0.0,89,0.00,,,0.00,0,WeatherCatV1.24B11,2014-01-14 06:48:00,
2014-01-14 01:53:00,38.2,35.2,29.60,South,171,0.0,0.0,89,0.00,,,0.00,0,WeatherCatV1.24B11,2014-01-14 06:53:00,
2014-01-14 01:58:00,38.2,35.2,29.59,South,171,0.0,0.0,89,0.00,,,0.00,0,WeatherCatV1.24B11,2014-01-14 06:58:00,
2014-01-14 02:03:00,38.2,35.2,29.60,South,171,0.0,0.0,89,0.00,,,0.00,0,WeatherCatV1.24B11,2014-01-14 07:03:00,
2014-01-14 02:08:00,38.3,35.3,29.60,South,171,0.0,0.0,89,0.00,,,0.00,0,WeatherCatV1.24B11,2014-01-14 07:08:00,
2014-01-14 02:13:00,38.3,35.3,29.59,South,171,0.0,0.0,89,0.00,,,0.00,0,WeatherCatV1.24B11,2014-01-14 07:13:00,
2014-01-14 02:18:00,38.3,35.3,29.59,South,171,0.0,0.0,89,0.00,,,0.00,0,WeatherCatV1.24B11,2014-01-14 07:18:00,
2014-01-14 02:23:00,38.4,35.5,29.59,South,171,0.0,0.0,89,0.00,,,0.00,0,WeatherCatV1.24B11,2014-01-14 07:23:00,
2014-01-14 02:28:00,38.5,35.5,29.59,South,171,0.0,0.0,89,0.00,,,0.00,0,WeatherCatV1.24B11,2014-01-14 07:28:00,
2014-01-14 02:33:00,38.5,35.5,29.59,South,171,0.0,0.0,89,0.00,,,0.00,0,WeatherCatV1.24B11,2014-01-14 07:33:00,
2014-01-14 02:38:00,38.6,35.6,29.59,South,171,0.0,1.0,89,0.00,,,0.00,0,WeatherCatV1.24B11,2014-01-14 07:38:00,
2014-01-14 02:43:00,38.7,35.7,29.58,South,171,0.0,0.0,89,0.00,,,0.00,0,WeatherCatV1.24B11,2014-01-14 07:43:00,
2014-01-14 02:48:00,38.7,35.7,29.59,South,171,0.0,0.0,89,0.00,,,0.00,0,WeatherCatV1.24B11,2014-01-14 07:48:00,
2014-01-14 02:53:00,38.8,36.1,29.58,South,171,0.0,1.0,90,0.00,,,0.00,0,WeatherCatV1.24B11,2014-01-14 07:53:00,
2014-01-14 02:58:00,38.9,36.2,29.58,South,171,0.0,0.0,90,0.00,,,0.00,0,WeatherCatV1.24B11,2014-01-14 07:58:00,
2014-01-14 03:03:00,39.0,36.3,29.57,South,171,0.0,1.0,90,0.00,,,0.00,0,WeatherCatV1.24B11,2014-01-14 08:03:00,
2014-01-14 03:08:00,39.1,36.4,29.58,South,171,0.0,1.0,90,0.00,,,0.00,0,WeatherCatV1.24B11,2014-01-14 08:08:00,
2014-01-14 03:13:00,39.4,36.7,29.57,South,171,0.0,1.0,90,0.00,,,0.00,0,WeatherCatV1.24B11,2014-01-14 08:13:00,
2014-01-14 03:18:00,39.7,37.0,29.57,South,171,0.0,1.0,90,0.00,,,0.00,0,WeatherCatV1.24B11,2014-01-14 08:18:00,
2014-01-14 03:23:00,39.9,37.2,29.57,South,171,0.0,1.0,90,0.00,,,0.00,0,WeatherCatV1.24B11,2014-01-14 08:23:00,
2014-01-14 03:28:00,40.0,37.3,29.57,WNW,302,1.0,2.0,90,0.00,,,0.00,0,WeatherCatV1.24B11,2014-01-14 08:28:00,
2014-01-14 03:33:00,40.1,37.1,29.57,WNW,302,0.0,0.0,89,0.00,,,0.00,0,WeatherCatV1.24B11,2014-01-14 08:33:00,
2014-01-14 03:38:00,40.2,37.2,29.57,WNW,302,0.0,1.0,89,0.00,,,0.00,0,WeatherCatV1.24B11,2014-01-14 08:38:00,
2014-01-14 03:43:00,40.2,37.2,29.57,WNW,302,0.0,0.0,89,0.00,,,0.00,0,WeatherCatV1.24B11,2014-01-14 08:43:00,
2014-01-14 03:48:00,40.2,37.2,29.57,WNW,302,0.0,0.0,89,0.00,,,0.00,0,WeatherCatV1.24B11,2014-01-14 08:48:00,
2014-01-14 03:53:00,40.3,37.3,29.57,WNW,302,0.0,1.0,89,0.00,,,0.00,0,WeatherCatV1.24B11,2014-01-14 08:53:00,
2014-01-14 03:58:00,40.5,37.5,29.57,WNW,302,0.0,0.0,89,0.00,,,0.00,0,WeatherCatV1.24B11,2014-01-14 08:58:00,
2014-01-14 04:03:00,40.5,37.5,29.57,WNW,302,0.0,0.0,89,0.00,,,0.00,0,WeatherCatV1.24B11,2014-01-14 09:03:00,
2014-01-14 04:08:00,40.6,37.6,29.56,WNW,302,0.0,0.0,89,0.00,,,0.00,0,WeatherCatV1.24B11,2014-01-14 09:08:00,
2014-01-14 04:13:00,40.8,37.8,29.56,WNW,302,0.0,0.0,89,0.00,,,0.00,0,WeatherCatV1.24B11,2014-01-14 09:13:00,
2014-01-14 04:18:00,40.9,38.2,29.57,WNW,302,0.0,0.0,90,0.00,,,0.00,0,WeatherCatV1.24B11,2014-01-14 09:18:00,
2014-01-14 04:23:00,41.0,38.3,29.57,WNW,302,0.0,0.0,90,0.00,,,0.00,0,WeatherCatV1.24B11,2014-01-14 09:23:00,
2014-01-14 04:28:00,41.1,38.4,29.58,SW,227,2.0,3.0,90,0.00,,,0.00,0,WeatherCatV1.24B11,2014-01-14 09:28:00,
2014-01-14 04:33:00,41.7,39.0,29.57,SSW,209,0.0,0.0,90,0.00,,,0.00,0,WeatherCatV1.24B11,2014-01-14 09:33:00,
2014-01-14 04:38:00,42.1,39.7,29.57,South,191,1.0,4.0,91,0.00,,,0.00,0,WeatherCatV1.24B11,2014-01-14 09:38:00,
2014-01-14 04:43:00,42.6,40.2,29.58,SSW,205,0.0,0.0,91,0.00,,,0.00,0,WeatherCatV1.24B11,2014-01-14 09:43:00,
2014-01-14 04:48:00,43.2,40.8,29.58,SW,235,1.0,2.0,91,0.00,,,0.00,0,WeatherCatV1.24B11,2014-01-14 09:48:00,
2014-01-14 04:53:00,43.8,41.3,29.58,SSW,202,0.0,5.0,91,0.00,,,0.01,0,WeatherCatV1.24B11,2014-01-14 09:53:00,
2014-01-14 04:58:00,44.2,41.7,29.58,SSW,206,0.0,2.0,91,0.00,,,0.01,0,WeatherCatV1.24B11,2014-01-14 09:58:00,
2014-01-14 05:03:00,44.6,41.8,29.57,WSW,252,1.0,2.0,90,0.00,,,0.01,0,WeatherCatV1.24B11,2014-01-14 10:03:00,
2014-01-14 05:08:00,44.8,42.0,29.57,WSW,252,0.0,3.0,90,0.00,,,0.01,0,WeatherCatV1.24B11,2014-01-14 10:08:00,
2014-01-14 05:13:00,44.9,42.2,29.57,WSW,249,0.0,0.0,90,0.00,,,0.01,0,WeatherCatV1.24B11,2014-01-14 10:13:00,
2014-01-14 05:18:00,45.1,42.0,29.57,SSW,194,0.0,0.0,89,0.00,,,0.01,0,WeatherCatV1.24B11,2014-01-14 10:18:00,
2014-01-14 05:23:00,45.2,42.2,29.56,SSW,194,0.0,1.0,89,0.00,,,0.01,0,WeatherCatV1.24B11,2014-01-14 10:23:00,
2014-01-14 05:28:00,45.2,42.2,29.56,ENE,76,0.0,2.0,89,0.00,,,0.01,0,WeatherCatV1.24B11,2014-01-14 10:28:00,
2014-01-14 05:33:00,45.3,42.2,29.56,SSW,200,0.0,3.0,89,0.00,,,0.01,0,WeatherCatV1.24B11,2014-01-14 10:33:00,
2014-01-14 05:38:00,45.4,42.3,29.54,SSW,208,0.0,1.0,89,0.00,,,0.01,0,WeatherCatV1.24B11,2014-01-14 10:38:00,
2014-01-14 05:43:00,45.5,42.5,29.54,WSW,246,0.0,0.0,89,0.00,,,0.01,0,WeatherCatV1.24B11,2014-01-14 10:43:00,
2014-01-14 05:48:00,45.6,42.5,29.53,WSW,246,0.0,0.0,89,0.00,,,0.01,0,WeatherCatV1.24B11,2014-01-14 10:48:00,
2014-01-14 05:53:00,45.6,42.5,29.53,WSW,246,0.0,0.0,89,0.00,,,0.01,0,WeatherCatV1.24B11,2014-01-14 10:53:00,
2014-01-14 05:58:00,45.7,42.7,29.54,WSW,246,0.0,0.0,89,0.00,,,0.01,0,WeatherCatV1.24B11,2014-01-14 10:58:00,
2014-01-14 06:03:00,45.6,42.5,29.53,WSW,246,0.0,0.0,89,0.00,,,0.01,0,WeatherCatV1.24B11,2014-01-14 11:03:00,
2014-01-14 06:08:00,45.6,42.2,29.54,WSW,246,0.0,0.0,88,0.00,,,0.01,0,WeatherCatV1.24B11,2014-01-14 11:08:00,
2014-01-14 06:13:00,45.5,42.2,29.54,WSW,246,0.0,0.0,88,0.00,,,0.01,0,WeatherCatV1.24B11,2014-01-14 11:13:00,
2014-01-14 06:18:00,45.3,42.0,29.55,West,266,5.0,7.0,88,0.00,,,0.01,0,WeatherCatV1.24B11,2014-01-14 11:18:00,
2014-01-14 06:23:00,45.2,42.2,29.55,SSE,153,2.0,2.0,89,0.00,,,0.01,0,WeatherCatV1.24B11,2014-01-14 11:23:00,
2014-01-14 06:28:00,45.2,42.2,29.55,SSE,155,0.0,0.0,89,0.00,,,0.01,0,WeatherCatV1.24B11,2014-01-14 11:28:00,
2014-01-14 06:33:00,45.1,42.0,29.55,SSW,211,0.0,0.0,89,0.00,,,0.01,0,WeatherCatV1.24B11,2014-01-14 11:33:00,
2014-01-14 06:38:00,45.2,42.2,29.54,SSW,198,0.0,0.0,89,0.00,,,0.01,0,WeatherCatV1.24B11,2014-01-14 11:38:00,
2014-01-14 06:43:00,45.3,42.2,29.55,South,182,1.0,1.0,89,0.00,,,0.01,0,WeatherCatV1.24B11,2014-01-14 11:43:00,
2014-01-14 06:48:00,45.5,42.5,29.55,SE,143,0.0,0.0,89,0.00,,,0.01,0,WeatherCatV1.24B11,2014-01-14 11:48:00,
2014-01-14 06:53:00,45.7,42.7,29.56,South,169,0.0,6.0,89,0.00,,,0.01,0,WeatherCatV1.24B11,2014-01-14 11:53:00,
2014-01-14 06:58:00,45.9,42.5,29.56,South,181,1.0,2.0,88,0.00,,,0.01,0,WeatherCatV1.24B11,2014-01-14 11:58:00,
2014-01-14 07:03:00,46.1,42.8,29.56,SSW,204,1.0,4.0,88,0.00,,,0.01,0,WeatherCatV1.24B11,2014-01-14 12:03:00,
2014-01-14 07:08:00,46.4,43.0,29.56,SSW,211,0.0,5.0,88,0.00,,,0.01,0,WeatherCatV1.24B11,2014-01-14 12:08:00,
2014-01-14 07:13:00,46.5,42.8,29.56,South,184,0.0,1.0,87,0.00,,,0.01,0,WeatherCatV1.24B11,2014-01-14 12:13:00,
2014-01-14 07:18:00,46.6,43.2,29.55,South,184,0.0,0.0,88,0.00,,,0.01,0,WeatherCatV1.24B11,2014-01-14 12:18:00,
2014-01-14 07:23:00,46.7,43.0,29.55,SSE,161,0.0,2.0,87,0.00,,,0.01,0,WeatherCatV1.24B11,2014-01-14 12:23:00,
2014-01-14 07:28:00,46.7,43.3,29.56,SSE,161,0.0,0.0,88,0.00,,,0.01,0,WeatherCatV1.24B11,2014-01-14 12:28:00,
2014-01-14 07:33:00,46.7,43.3,29.55,SSE,161,0.0,0.0,88,0.00,,,0.01,0,WeatherCatV1.24B11,2014-01-14 12:33:00,
2014-01-14 07:38:00,46.7,43.3,29.55,SSE,161,0.0,0.0,88,0.00,,,0.02,0,WeatherCatV1.24B11,2014-01-14 12:38:00,
2014-01-14 07:43:00,46.6,43.2,29.55,SSE,161,0.0,0.0,88,0.00,,,0.02,5,WeatherCatV1.24B11,2014-01-14 12:43:00,
2014-01-14 07:48:00,46.5,43.4,29.54,SSE,161,0.0,0.0,89,0.00,,,0.02,5,WeatherCatV1.24B11,2014-01-14 12:48:00,
2014-01-14 07:53:00,46.4,43.3,29.55,SSE,161,0.0,0.0,89,0.00,,,0.02,5,WeatherCatV1.24B11,2014-01-14 12:53:00,
2014-01-14 07:58:00,46.2,43.1,29.54,SSE,161,0.0,0.0,89,0.00,,,0.02,5,WeatherCatV1.24B11,2014-01-14 12:58:00,
2014-01-14 08:03:00,46.1,43.3,29.54,SSE,161,0.0,1.0,90,0.00,,,0.02,7,WeatherCatV1.24B11,2014-01-14 13:03:00,
2014-01-14 08:08:00,45.9,43.1,29.55,SSE,161,0.0,1.0,90,0.00,,,0.02,7,WeatherCatV1.24B11,2014-01-14 13:08:00,
2014-01-14 08:13:00,45.9,43.1,29.55,WSW,252,0.0,0.0,90,0.00,,,0.02,9,WeatherCatV1.24B11,2014-01-14 13:13:00,
2014-01-14 08:18:00,45.8,43.0,29.55,ESE,117,0.0,1.0,90,0.00,,,0.02,7,WeatherCatV1.24B11,2014-01-14 13:18:00,
2014-01-14 08:23:00,45.8,43.3,29.55,ESE,117,0.0,0.0,91,0.00,,,0.02,9,WeatherCatV1.24B11,2014-01-14 13:23:00,
2014-01-14 08:28:00,45.8,43.3,29.55,ESE,117,0.0,0.0,91,0.00,,,0.02,11,WeatherCatV1.24B11,2014-01-14 13:28:00,
2014-01-14 08:33:00,45.6,43.1,29.55,ESE,117,0.0,0.0,91,0.00,,,0.02,14,WeatherCatV1.24B11,2014-01-14 13:33:00,
2014-01-14 08:38:00,45.6,43.1,29.54,ESE,117,0.0,0.0,91,0.00,,,0.02,14,WeatherCatV1.24B11,2014-01-14 13:38:00,
2014-01-14 08:43:00,45.6,43.1,29.55,ESE,117,0.0,0.0,91,0.00,,,0.02,16,WeatherCatV1.24B11,2014-01-14 13:43:00,
2014-01-14 08:48:00,45.6,43.4,29.55,ESE,117,0.0,0.0,92,0.00,,,0.02,19,WeatherCatV1.24B11,2014-01-14 13:48:00,
2014-01-14 08:53:00,45.6,43.4,29.55,ESE,117,0.0,0.0,92,0.00,,,0.02,23,WeatherCatV1.24B11,2014-01-14 13:53:00,
2014-01-14 08:58:00,45.6,43.4,29.55,ESE,117,0.0,0.0,92,0.00,,,0.02,28,WeatherCatV1.24B11,2014-01-14 13:58:00,
2014-01-14 09:03:00,45.6,43.7,29.54,ESE,117,0.0,0.0,93,0.00,,,0.02,35,WeatherCatV1.24B11,2014-01-14 14:03:00,
2014-01-14 09:08:00,45.8,44.2,29.54,ESE,117,0.0,1.0,94,0.00,,,0.02,33,WeatherCatV1.24B11,2014-01-14 14:08:00,
2014-01-14 09:13:00,45.9,44.3,29.55,ESE,117,0.0,0.0,94,0.00,,,0.02,18,WeatherCatV1.24B11,2014-01-14 14:13:00,
2014-01-14 09:18:00,45.9,44.3,29.55,ESE,117,0.0,1.0,94,0.00,,,0.03,14,WeatherCatV1.24B11,2014-01-14 14:18:00,
2014-01-14 09:23:00,46.0,44.4,29.54,ESE,117,0.0,0.0,94,0.00,,,0.03,21,WeatherCatV1.24B11,2014-01-14 14:23:00,
2014-01-14 09:28:00,46.0,44.4,29.54,ESE,117,0.0,1.0,94,0.00,,,0.03,32,WeatherCatV1.24B11,2014-01-14 14:28:00,
2014-01-14 09:33:00,46.0,44.4,29.53,ESE,117,0.0,0.0,94,0.00,,,0.03,46,WeatherCatV1.24B11,2014-01-14 14:33:00,
2014-01-14 09:38:00,46.1,44.5,29.52,ESE,117,0.0,0.0,94,0.00,,,0.03,47,WeatherCatV1.24B11,2014-01-14 14:38:00,
2014-01-14 09:43:00,46.1,44.8,29.53,ESE,117,0.0,0.0,95,0.00,,,0.03,32,WeatherCatV1.24B11,2014-01-14 14:43:00,
2014-01-14 09:48:00,46.1,44.8,29.53,ESE,117,0.0,0.0,95,0.00,,,0.03,25,WeatherCatV1.24B11,2014-01-14 14:48:00,
2014-01-14 09:53:00,46.1,44.8,29.53,ESE,117,0.0,0.0,95,0.00,,,0.03,26,WeatherCatV1.24B11,2014-01-14 14:53:00,
2014-01-14 09:58:00,46.1,44.8,29.52,ESE,117,0.0,0.0,95,0.00,,,0.03,21,WeatherCatV1.24B11,2014-01-14 14:58:00,
2014-01-14 10:03:00,46.0,44.7,29.52,ESE,117,0.0,0.0,95,0.00,,,0.03,16,WeatherCatV1.24B11,2014-01-14 15:03:00,
2014-01-14 10:08:00,46.1,44.8,29.52,South,183,0.0,0.0,95,0.00,,,0.03,21,WeatherCatV1.24B11,2014-01-14 15:08:00,
2014-01-14 10:13:00,46.1,44.8,29.52,South,183,0.0,0.0,95,0.00,,,0.03,26,WeatherCatV1.24B11,2014-01-14 15:13:00,
2014-01-14 10:18:00,46.1,44.8,29.52,South,183,0.0,0.0,95,0.00,,,0.03,16,WeatherCatV1.24B11,2014-01-14 15:18:00,
2014-01-14 10:23:00,46.1,44.8,29.52,South,183,0.0,0.0,95,0.00,,,0.03,18,WeatherCatV1.24B11,2014-01-14 15:23:00,
2014-01-14 10:28:00,46.1,44.8,29.52,South,183,0.0,0.0,95,0.00,,,0.03,21,WeatherCatV1.24B11,2014-01-14 15:28:00,
2014-01-14 10:33:00,46.1,44.8,29.51,South,183,0.0,0.0,95,0.00,,,0.03,28,WeatherCatV1.24B11,2014-01-14 15:33:00,
2014-01-14 10:38:00,46.1,44.8,29.52,South,183,0.0,0.0,95,0.00,,,0.03,16,WeatherCatV1.24B11,2014-01-14 15:38:00,
2014-01-14 10:43:00,46.1,44.8,29.52,South,183,0.0,0.0,95,0.00,,,0.03,11,WeatherCatV1.24B11,2014-01-14 15:43:00,
2014-01-14 10:48:00,46.1,44.8,29.52,South,183,0.0,0.0,95,0.00,,,0.03,12,WeatherCatV1.24B11,2014-01-14 15:48:00,
2014-01-14 10:53:00,46.1,44.8,29.51,South,183,0.0,0.0,95,0.00,,,0.03,16,WeatherCatV1.24B11,2014-01-14 15:53:00,
2014-01-14 10:58:00,46.0,44.7,29.51,South,183,0.0,0.0,95,0.00,,,0.03,16,WeatherCatV1.24B11,2014-01-14 15:58:00,
2014-01-14 11:03:00,46.0,44.7,29.51,South,183,0.0,0.0,95,0.00,,,0.03,18,WeatherCatV1.24B11,2014-01-14 16:03:00,
2014-01-14 11:08:00,46.0,44.7,29.51,South,183,0.0,0.0,95,0.00,,,0.03,25,WeatherCatV1.24B11,2014-01-14 16:08:00,
2014-01-14 11:13:00,46.0,44.7,29.50,South,183,0.0,0.0,95,0.00,,,0.03,19,WeatherCatV1.24B11,2014-01-14 16:13:00,
2014-01-14 11:18:00,46.0,44.9,29.50,South,183,0.0,0.0,96,0.00,,,0.03,19,WeatherCatV1.24B11,2014-01-14 16:18:00,
2014-01-14 11:23:00,46.0,44.9,29.50,South,183,0.0,0.0,96,0.00,,,0.03,16,WeatherCatV1.24B11,2014-01-14 16:23:00,
2014-01-14 11:28:00,46.0,44.9,29.51,South,183,0.0,0.0,96,0.00,,,0.03,19,WeatherCatV1.24B11,2014-01-14 16:28:00,
2014-01-14 11:33:00,46.0,44.9,29.51,South,183,0.0,0.0,96,0.00,,,0.03,16,WeatherCatV1.24B11,2014-01-14 16:33:00,
2014-01-14 11:38:00,46.0,44.9,29.50,South,183,0.0,0.0,96,0.00,,,0.03,18,WeatherCatV1.24B11,2014-01-14 16:38:00,
2014-01-14 11:43:00,45.9,44.8,29.50,South,183,0.0,0.0,96,0.00,,,0.03,21,WeatherCatV1.24B11,2014-01-14 16:43:00,
2014-01-14 11:48:00,45.9,44.8,29.50,South,183,0.0,0.0,96,0.00,,,0.03,26,WeatherCatV1.24B11,2014-01-14 16:48:00,
2014-01-14 11:53:00,46.0,44.7,29.49,South,183,0.0,0.0,95,0.00,,,0.03,21,WeatherCatV1.24B11,2014-01-14 16:53:00,
2014-01-14 11:58:00,46.0,44.9,29.48,South,183,0.0,0.0,96,0.00,,,0.03,23,WeatherCatV1.24B11,2014-01-14 16:58:00,
2014-01-14 12:03:00,46.0,44.9,29.48,South,183,0.0,0.0,96,0.00,,,0.03,25,WeatherCatV1.24B11,2014-01-14 17:03:00,
2014-01-14 12:08:00,46.0,44.9,29.48,South,183,0.0,0.0,96,0.00,,,0.03,25,WeatherCatV1.24B11,2014-01-14 17:08:00,
2014-01-14 12:13:00,46.0,44.9,29.48,South,183,0.0,0.0,96,0.00,,,0.03,19,WeatherCatV1.24B11,2014-01-14 17:13:00,
2014-01-14 12:18:00,46.1,45.0,29.48,South,183,0.0,0.0,96,0.00,,,0.03,26,WeatherCatV1.24B11,2014-01-14 17:18:00,
2014-01-14 12:23:00,46.1,45.0,29.47,South,183,0.0,0.0,96,0.00,,,0.03,14,WeatherCatV1.24B11,2014-01-14 17:23:00,
2014-01-14 12:28:00,46.1,45.0,29.47,South,183,0.0,0.0,96,0.00,,,0.03,16,WeatherCatV1.24B11,2014-01-14 17:28:00,
2014-01-14 12:33:00,46.1,45.0,29.47,South,183,0.0,0.0,96,0.00,,,0.03,21,WeatherCatV1.24B11,2014-01-14 17:33:00,
2014-01-14 12:38:00,46.2,45.1,29.46,South,183,0.0,0.0,96,0.00,,,0.03,19,WeatherCatV1.24B11,2014-01-14 17:38:00,
2014-01-14 12:43:00,46.2,45.1,29.45,South,183,0.0,0.0,96,0.00,,,0.03,26,WeatherCatV1.24B11,2014-01-14 17:43:00,
2014-01-14 12:48:00,46.3,45.2,29.45,South,183,0.0,0.0,96,0.00,,,0.03,25,WeatherCatV1.24B11,2014-01-14 17:48:00,
2014-01-14 12:53:00,46.3,45.2,29.45,South,183,0.0,0.0,96,0.00,,,0.03,23,WeatherCatV1.24B11,2014-01-14 17:53:00,
2014-01-14 12:58:00,46.3,45.2,29.45,South,183,0.0,0.0,96,0.00,,,0.03,21,WeatherCatV1.24B11,2014-01-14 17:58:00,
2014-01-14 13:03:00,46.4,45.3,29.45,South,183,0.0,0.0,96,0.00,,,0.03,25,WeatherCatV1.24B11,2014-01-14 18:03:00,
2014-01-14 13:08:00,46.4,45.3,29.45,South,183,0.0,0.0,96,0.00,,,0.03,18,WeatherCatV1.24B11,2014-01-14 18:08:00,
2014-01-14 13:13:00,46.4,45.3,29.44,South,183,0.0,0.0,96,0.00,,,0.03,21,WeatherCatV1.24B11,2014-01-14 18:13:00,
2014-01-14 13:18:00,46.4,45.3,29.44,South,183,0.0,0.0,96,0.00,,,0.03,30,WeatherCatV1.24B11,2014-01-14 18:18:00,
2014-01-14 13:23:00,46.4,45.3,29.44,South,183,0.0,0.0,96,0.00,,,0.03,25,WeatherCatV1.24B11,2014-01-14 18:23:00,
2014-01-14 13:28:00,46.4,45.3,29.43,South,183,0.0,0.0,96,0.00,,,0.03,32,WeatherCatV1.24B11,2014-01-14 18:28:00,
2014-01-14 13:33:00,46.4,45.3,29.43,South,183,0.0,0.0,96,0.00,,,0.03,18,WeatherCatV1.24B11,2014-01-14 18:33:00,
2014-01-14 13:38:00,46.5,45.4,29.44,South,183,0.0,0.0,96,0.00,,,0.03,19,WeatherCatV1.24B11,2014-01-14 18:38:00,
2014-01-14 13:43:00,46.5,45.4,29.43,South,183,0.0,0.0,96,0.00,,,0.03,25,WeatherCatV1.24B11,2014-01-14 18:43:00,
2014-01-14 13:48:00,46.5,45.4,29.43,South,183,0.0,0.0,96,0.00,,,0.03,18,WeatherCatV1.24B11,2014-01-14 18:48:00,
2014-01-14 13:53:00,46.5,45.4,29.44,South,183,0.0,0.0,96,0.00,,,0.03,16,WeatherCatV1.24B11,2014-01-14 18:53:00,
2014-01-14 13:58:00,46.5,45.4,29.44,South,183,0.0,0.0,96,0.00,,,0.03,18,WeatherCatV1.24B11,2014-01-14 18:58:00,
2014-01-14 14:03:00,46.5,45.4,29.44,South,183,0.0,0.0,96,0.00,,,0.03,21,WeatherCatV1.24B11,2014-01-14 19:03:00,
2014-01-14 14:08:00,46.4,45.3,29.44,South,183,0.0,1.0,96,0.00,,,0.03,16,WeatherCatV1.24B11,2014-01-14 19:08:00,
2014-01-14 14:13:00,46.4,45.3,29.45,WNW,284,0.0,1.0,96,0.00,,,0.03,12,WeatherCatV1.24B11,2014-01-14 19:13:00,
2014-01-14 14:18:00,46.4,45.6,29.44,West,269,0.0,1.0,97,0.00,,,0.03,18,WeatherCatV1.24B11,2014-01-14 19:18:00,
2014-01-14 14:23:00,46.3,45.5,29.44,West,275,0.0,1.0,97,0.00,,,0.03,23,WeatherCatV1.24B11,2014-01-14 19:23:00,
2014-01-14 14:28:00,46.3,45.5,29.44,West,275,0.0,0.0,97,0.00,,,0.03,18,WeatherCatV1.24B11,2014-01-14 19:28:00,
2014-01-14 14:33:00,46.3,45.2,29.44,SW,216,1.0,3.0,96,0.00,,,0.03,14,WeatherCatV1.24B11,2014-01-14 19:33:00,
2014-01-14 14:38:00,46.2,45.1,29.44,SW,216,0.0,2.0,96,0.00,,,0.03,12,WeatherCatV1.24B11,2014-01-14 19:38:00,
2014-01-14 14:43:00,46.1,45.0,29.45,SW,215,1.0,1.0,96,0.00,,,0.03,28,WeatherCatV1.24B11,2014-01-14 19:43:00,
2014-01-14 14:48:00,46.1,45.0,29.45,West,279,0.0,1.0,96,0.00,,,0.03,33,WeatherCatV1.24B11,2014-01-14 19:48:00,
2014-01-14 14:53:00,46.0,44.9,29.45,WNW,298,2.0,4.0,96,0.00,,,0.03,40,WeatherCatV1.24B11,2014-01-14 19:53:00,
2014-01-14 14:58:00,45.9,45.1,29.45,West,261,0.0,1.0,97,0.00,,,0.03,33,WeatherCatV1.24B11,2014-01-14 19:58:00,
2014-01-14 15:03:00,45.9,45.1,29.45,West,267,0.0,3.0,97,0.00,,,0.03,26,WeatherCatV1.24B11,2014-01-14 20:03:00,
2014-01-14 15:08:00,45.8,45.0,29.46,West,265,0.0,3.0,97,0.00,,,0.03,25,WeatherCatV1.24B11,2014-01-14 20:08:00,
2014-01-14 15:13:00,45.8,45.0,29.46,WNW,283,0.0,1.0,97,0.00,,,0.03,26,WeatherCatV1.24B11,2014-01-14 20:13:00,
2014-01-14 15:18:00,45.8,45.0,29.46,West,276,1.0,1.0,97,0.00,,,0.03,21,WeatherCatV1.24B11,2014-01-14 20:18:00,
2014-01-14 15:24:00,45.8,44.7,29.45,West,277,0.0,1.0,96,0.00,,,0.03,12,WeatherCatV1.24B11,2014-01-14 20:24:00,
2014-01-14 15:29:00,45.7,44.6,29.44,West,277,0.0,0.0,96,0.00,,,0.03,11,WeatherCatV1.24B11,2014-01-14 20:29:00,
2014-01-14 15:34:00,45.7,44.6,29.45,West,277,0.0,0.0,96,0.00,,,0.03,9,WeatherCatV1.24B11,2014-01-14 20:34:00,
2014-01-14 15:39:00,45.6,44.5,29.45,West,261,0.0,2.0,96,0.00,,,0.03,7,WeatherCatV1.24B11,2014-01-14 20:39:00,
2014-01-14 15:44:00,45.6,44.5,29.45,West,261,0.0,1.0,96,0.00,,,0.03,9,WeatherCatV1.24B11,2014-01-14 20:44:00,
2014-01-14 15:49:00,45.6,44.5,29.45,SW,222,0.0,0.0,96,0.00,,,0.03,7,WeatherCatV1.24B11,2014-01-14 20:49:00,
2014-01-14 15:54:00,45.6,44.5,29.45,SW,222,0.0,0.0,96,0.00,,,0.03,11,WeatherCatV1.24B11,2014-01-14 20:54:00,
2014-01-14 15:59:00,45.5,44.4,29.44,SW,222,0.0,0.0,96,0.00,,,0.03,12,WeatherCatV1.24B11,2014-01-14 20:59:00,
2014-01-14 16:04:00,45.5,44.4,29.44,SW,222,0.0,0.0,96,0.00,,,0.03,12,WeatherCatV1.24B11,2014-01-14 21:04:00,
2014-01-14 16:09:00,45.5,44.7,29.44,SW,222,0.0,0.0,97,0.00,,,0.03,11,WeatherCatV1.24B11,2014-01-14 21:09:00,
2014-01-14 16:14:00,45.4,44.6,29.45,SW,222,0.0,0.0,97,0.00,,,0.03,9,WeatherCatV1.24B11,2014-01-14 21:14:00,
2014-01-14 16:19:00,45.3,44.5,29.44,SW,222,0.0,0.0,97,0.00,,,0.03,7,WeatherCatV1.24B11,2014-01-14 21:19:00,
2014-01-14 16:24:00,45.2,44.1,29.44,SW,222,0.0,0.0,96,0.00,,,0.03,5,WeatherCatV1.24B11,2014-01-14 21:24:00,
2014-01-14 16:29:00,45.1,44.0,29.44,SW,222,0.0,0.0,96,0.00,,,0.03,0,WeatherCatV1.24B11,2014-01-14 21:29:00,
2014-01-14 16:34:00,44.9,43.8,29.44,SW,222,0.0,0.0,96,0.00,,,0.03,0,WeatherCatV1.24B11,2014-01-14 21:34:00,
2014-01-14 16:39:00,44.7,43.6,29.44,SW,222,0.0,0.0,96,0.00,,,0.03,0,WeatherCatV1.24B11,2014-01-14 21:39:00,
2014-01-14 16:44:00,44.5,43.4,29.45,SW,222,0.0,0.0,96,0.00,,,0.03,0,WeatherCatV1.24B11,2014-01-14 21:44:00,
2014-01-14 16:49:00,44.4,43.3,29.46,SW,222,0.0,0.0,96,0.00,,,0.03,0,WeatherCatV1.24B11,2014-01-14 21:49:00,
2014-01-14 16:54:00,44.3,43.2,29.46,SW,222,0.0,1.0,96,0.00,,,0.03,0,WeatherCatV1.24B11,2014-01-14 21:54:00,
2014-01-14 16:59:00,44.3,43.2,29.47,SW,222,0.0,0.0,96,0.00,,,0.03,0,WeatherCatV1.24B11,2014-01-14 21:59:00,
2014-01-14 17:04:00,44.3,43.2,29.46,SW,222,0.0,0.0,96,0.00,,,0.03,0,WeatherCatV1.24B11,2014-01-14 22:04:00,
2014-01-14 17:09:00,44.3,43.2,29.46,SW,222,0.0,0.0,96,0.00,,,0.03,0,WeatherCatV1.24B11,2014-01-14 22:09:00,
2014-01-14 17:14:00,44.3,43.2,29.46,SW,222,0.0,0.0,96,0.00,,,0.03,0,WeatherCatV1.24B11,2014-01-14 22:14:00,
2014-01-14 17:19:00,44.3,43.2,29.46,SW,222,0.0,0.0,96,0.00,,,0.03,0,WeatherCatV1.24B11,2014-01-14 22:19:00,
2014-01-14 17:24:00,44.2,43.1,29.47,SW,222,0.0,0.0,96,0.00,,,0.03,0,WeatherCatV1.24B11,2014-01-14 22:24:00,
2014-01-14 17:29:00,44.0,42.9,29.47,SW,222,0.0,0.0,96,0.00,,,0.03,0,WeatherCatV1.24B11,2014-01-14 22:29:00,
2014-01-14 17:34:00,43.9,43.1,29.48,SW,222,0.0,0.0,97,0.00,,,0.03,0,WeatherCatV1.24B11,2014-01-14 22:34:00,
2014-01-14 17:39:00,43.8,42.7,29.48,SW,222,0.0,0.0,96,0.00,,,0.03,0,WeatherCatV1.24B11,2014-01-14 22:39:00,
2014-01-14 17:44:00,43.8,42.7,29.48,SW,222,0.0,0.0,96,0.00,,,0.03,0,WeatherCatV1.24B11,2014-01-14 22:44:00,
2014-01-14 17:49:00,43.8,42.7,29.47,SW,222,0.0,0.0,96,0.00,,,0.03,0,WeatherCatV1.24B11,2014-01-14 22:49:00,
2014-01-14 17:54:00,43.7,42.6,29.47,SW,222,0.0,0.0,96,0.00,,,0.03,0,WeatherCatV1.24B11,2014-01-14 22:54:00,
2014-01-14 17:59:00,43.7,42.9,29.47,SW,222,0.0,0.0,97,0.00,,,0.03,0,WeatherCatV1.24B11,2014-01-14 22:59:00,
2014-01-14 18:04:00,43.6,42.8,29.47,SW,222,0.0,0.0,97,0.00,,,0.03,0,WeatherCatV1.24B11,2014-01-14 23:04:00,
2014-01-14 18:09:00,43.5,42.7,29.47,SW,222,0.0,0.0,97,0.00,,,0.03,0,WeatherCatV1.24B11,2014-01-14 23:09:00,
2014-01-14 18:14:00,43.6,42.8,29.46,SW,222,0.0,0.0,97,0.00,,,0.03,0,WeatherCatV1.24B11,2014-01-14 23:14:00,
2014-01-14 18:19:00,43.6,42.8,29.46,SW,222,0.0,0.0,97,0.00,,,0.03,0,WeatherCatV1.24B11,2014-01-14 23:19:00,
2014-01-14 18:24:00,43.7,42.9,29.47,SW,222,0.0,0.0,97,0.00,,,0.03,0,WeatherCatV1.24B11,2014-01-14 23:24:00,
2014-01-14 18:29:00,43.7,42.9,29.46,SW,222,0.0,0.0,97,0.00,,,0.03,0,WeatherCatV1.24B11,2014-01-14 23:29:00,
2014-01-14 18:34:00,43.7,42.9,29.46,SW,222,0.0,0.0,97,0.00,,,0.03,0,WeatherCatV1.24B11,2014-01-14 23:34:00,
2014-01-14 18:39:00,43.6,42.8,29.47,SW,222,0.0,0.0,97,0.00,,,0.03,0,WeatherCatV1.24B11,2014-01-14 23:39:00,
2014-01-14 18:44:00,43.6,42.8,29.48,SW,222,0.0,0.0,97,0.00,,,0.03,0,WeatherCatV1.24B11,2014-01-14 23:44:00,
2014-01-14 18:49:00,43.6,42.8,29.49,SW,222,0.0,0.0,97,0.00,,,0.03,0,WeatherCatV1.24B11,2014-01-14 23:49:00,
2014-01-14 18:54:00,43.6,42.8,29.49,SW,222,0.0,0.0,97,0.00,,,0.03,0,WeatherCatV1.24B11,2014-01-14 23:54:00,
2014-01-14 18:59:00,43.7,42.9,29.50,SW,236,0.0,1.0,97,0.00,,,0.03,0,WeatherCatV1.24B11,2014-01-14 23:59:00,
2014-01-14 19:04:00,43.9,43.1,29.51,West,266,0.0,3.0,97,0.00,,,0.03,0,WeatherCatV1.24B11,2014-01-15 00:04:00,
2014-01-14 19:09:00,44.0,43.2,29.51,WSW,246,0.0,1.0,97,0.00,,,0.03,0,WeatherCatV1.24B11,2014-01-15 00:09:00,
2014-01-14 19:14:00,44.2,43.4,29.51,WSW,256,0.0,4.0,97,0.00,,,0.03,0,WeatherCatV1.24B11,2014-01-15 00:14:00,
2014-01-14 19:19:00,44.3,43.5,29.52,West,275,0.0,2.0,97,0.00,,,0.03,0,WeatherCatV1.24B11,2014-01-15 00:19:00,
2014-01-14 19:24:00,44.3,43.5,29.52,West,275,1.0,2.0,97,0.00,,,0.03,0,WeatherCatV1.24B11,2014-01-15 00:24:00,
2014-01-14 19:29:00,44.3,43.5,29.53,West,277,0.0,2.0,97,0.00,,,0.03,0,WeatherCatV1.24B11,2014-01-15 00:29:00,
2014-01-14 19:34:00,44.4,43.6,29.53,West,271,0.0,1.0,97,0.00,,,0.03,0,WeatherCatV1.24B11,2014-01-15 00:34:00,
2014-01-14 19:39:00,44.4,43.6,29.53,West,269,0.0,3.0,97,0.00,,,0.03,0,WeatherCatV1.24B11,2014-01-15 00:39:00,
2014-01-14 19:44:00,44.4,43.6,29.54,SW,227,0.0,1.0,97,0.00,,,0.03,0,WeatherCatV1.24B11,2014-01-15 00:44:00,
2014-01-14 19:49:00,44.4,43.6,29.54,WSW,250,0.0,1.0,97,0.00,,,0.03,0,WeatherCatV1.24B11,2014-01-15 00:49:00,
2014-01-14 19:54:00,44.4,43.6,29.54,SW,227,0.0,1.0,97,0.00,,,0.03,0,WeatherCatV1.24B11,2014-01-15 00:54:00,
2014-01-14 19:59:00,44.4,43.6,29.54,SSW,213,1.0,1.0,97,0.00,,,0.03,0,WeatherCatV1.24B11,2014-01-15 00:59:00,
2014-01-14 20:04:00,44.4,43.6,29.55,SSW,213,0.0,0.0,97,0.00,,,0.03,0,WeatherCatV1.24B11,2014-01-15 01:04:00,
2014-01-14 20:09:00,44.3,43.5,29.55,WSW,254,0.0,0.0,97,0.00,,,0.03,0,WeatherCatV1.24B11,2014-01-15 01:09:00,
2014-01-14 20:14:00,44.2,43.4,29.56,WSW,254,0.0,0.0,97,0.00,,,0.03,0,WeatherCatV1.24B11,2014-01-15 01:14:00,
2014-01-14 20:19:00,44.0,43.2,29.57,WSW,254,0.0,0.0,97,0.00,,,0.03,0,WeatherCatV1.24B11,2014-01-15 01:19:00,
2014-01-14 20:24:00,43.8,43.0,29.57,WSW,255,0.0,1.0,97,0.00,,,0.03,0,WeatherCatV1.24B11,2014-01-15 01:24:00,
2014-01-14 20:29:00,43.7,42.9,29.57,SSW,193,1.0,2.0,97,0.00,,,0.03,0,WeatherCatV1.24B11,2014-01-15 01:29:00,
2014-01-14 20:34:00,43.7,42.9,29.57,SSW,199,0.0,2.0,97,0.00,,,0.03,0,WeatherCatV1.24B11,2014-01-15 01:34:00,
2014-01-14 20:39:00,43.8,43.0,29.58,West,272,0.0,1.0,97,0.00,,,0.03,0,WeatherCatV1.24B11,2014-01-15 01:39:00,
2014-01-14 20:44:00,43.9,43.1,29.58,WSW,252,0.0,2.0,97,0.00,,,0.03,0,WeatherCatV1.24B11,2014-01-15 01:44:00,
2014-01-14 20:49:00,43.9,43.1,29.58,WSW,252,2.0,2.0,97,0.00,,,0.03,0,WeatherCatV1.24B11,2014-01-15 01:49:00,
2014-01-14 20:54:00,43.9,43.1,29.58,WSW,252,0.0,0.0,97,0.00,,,0.03,0,WeatherCatV1.24B11,2014-01-15 01:54:00,
2014-01-14 20:59:00,43.7,42.9,29.58,WSW,252,0.0,0.0,97,0.00,,,0.03,0,WeatherCatV1.24B11,2014-01-15 01:59:00,
2014-01-14 21:04:00,43.6,42.8,29.58,SW,223,0.0,2.0,97,0.00,,,0.03,0,WeatherCatV1.24B11,2014-01-15 02:04:00,
2014-01-14 21:09:00,43.4,42.6,29.58,SW,223,0.0,0.0,97,0.00,,,0.03,0,WeatherCatV1.24B11,2014-01-15 02:09:00,
2014-01-14 21:14:00,43.4,42.6,29.59,SW,223,0.0,1.0,97,0.00,,,0.03,0,WeatherCatV1.24B11,2014-01-15 02:14:00,
2014-01-14 21:19:00,43.3,42.5,29.58,SW,223,0.0,0.0,97,0.00,,,0.03,0,WeatherCatV1.24B11,2014-01-15 02:19:00,
2014-01-14 21:24:00,43.2,42.4,29.59,SW,223,0.0,0.0,97,0.00,,,0.03,0,WeatherCatV1.24B11,2014-01-15 02:24:00,
2014-01-14 21:29:00,43.1,42.3,29.59,SW,223,0.0,0.0,97,0.00,,,0.03,0,WeatherCatV1.24B11,2014-01-15 02:29:00,
2014-01-14 21:34:00,42.9,42.1,29.59,SW,223,0.0,1.0,97,0.00,,,0.03,0,WeatherCatV1.24B11,2014-01-15 02:34:00,
2014-01-14 21:39:00,42.7,41.9,29.59,SW,223,0.0,0.0,97,0.00,,,0.03,0,WeatherCatV1.24B11,2014-01-15 02:39:00,
2014-01-14 21:44:00,42.5,41.7,29.58,SW,223,0.0,0.0,97,0.00,,,0.03,0,WeatherCatV1.24B11,2014-01-15 02:44:00,
2014-01-14 21:49:00,42.3,41.5,29.59,SW,223,0.0,0.0,97,0.00,,,0.03,0,WeatherCatV1.24B11,2014-01-15 02:49:00,
2014-01-14 21:54:00,42.0,41.2,29.59,SW,223,0.0,0.0,97,0.00,,,0.03,0,WeatherCatV1.24B11,2014-01-15 02:54:00,
2014-01-14 21:59:00,41.8,41.0,29.59,SW,223,0.0,0.0,97,0.00,,,0.03,0,WeatherCatV1.24B11,2014-01-15 02:59:00,
2014-01-14 22:04:00,41.3,40.2,29.59,SW,223,0.0,0.0,96,0.00,,,0.03,0,WeatherCatV1.24B11,2014-01-15 03:04:00,
2014-01-14 22:09:00,40.4,39.3,29.59,SW,223,0.0,0.0,96,0.00,,,0.03,0,WeatherCatV1.24B11,2014-01-15 03:09:00,
2014-01-14 22:14:00,39.7,38.7,29.59,SW,223,0.0,0.0,96,0.00,,,0.03,0,WeatherCatV1.24B11,2014-01-15 03:14:00,
2014-01-14 22:19:00,39.2,38.2,29.58,SW,223,0.0,0.0,96,0.00,,,0.03,0,WeatherCatV1.24B11,2014-01-15 03:19:00,
2014-01-14 22:24:00,38.8,37.8,29.59,SW,223,0.0,0.0,96,0.00,,,0.03,0,WeatherCatV1.24B11,2014-01-15 03:24:00,
2014-01-14 22:29:00,38.3,37.3,29.58,SW,223,0.0,0.0,96,0.00,,,0.03,0,WeatherCatV1.24B11,2014-01-15 03:29:00,
2014-01-14 22:34:00,37.8,36.8,29.58,SW,223,0.0,0.0,96,0.00,,,0.03,0,WeatherCatV1.24B11,2014-01-15 03:34:00,
2014-01-14 22:39:00,37.5,36.5,29.58,SW,223,0.0,0.0,96,0.00,,,0.03,0,WeatherCatV1.24B11,2014-01-15 03:39:00,
2014-01-14 22:44:00,37.3,36.3,29.58,SW,223,0.0,0.0,96,0.00,,,0.03,0,WeatherCatV1.24B11,2014-01-15 03:44:00,
2014-01-14 22:49:00,37.0,36.0,29.59,SW,223,0.0,0.0,96,0.00,,,0.03,0,WeatherCatV1.24B11,2014-01-15 03:49:00,
2014-01-14 22:54:00,36.8,35.8,29.60,SW,223,0.0,0.0,96,0.00,,,0.03,0,WeatherCatV1.24B11,2014-01-15 03:54:00,
2014-01-14 22:59:00,36.7,35.7,29.60,SW,223,0.0,0.0,96,0.00,,,0.03,0,WeatherCatV1.24B11,2014-01-15 03:59:00,
2014-01-14 23:04:00,36.5,35.5,29.60,SW,223,0.0,0.0,96,0.00,,,0.03,0,WeatherCatV1.24B11,2014-01-15 04:04:00,
2014-01-14 23:09:00,36.2,35.2,29.60,SW,223,0.0,0.0,96,0.00,,,0.03,0,WeatherCatV1.24B11,2014-01-15 04:09:00,
2014-01-14 23:14:00,35.7,34.7,29.60,SW,223,0.0,0.0,96,0.00,,,0.03,0,WeatherCatV1.24B11,2014-01-15 04:14:00,
2014-01-14 23:19:00,35.3,34.3,29.60,SW,223,0.0,0.0,96,0.00,,,0.03,0,WeatherCatV1.24B11,2014-01-15 04:19:00,
2014-01-14 23:24:00,35.0,34.0,29.60,SW,223,0.0,0.0,96,0.00,,,0.03,0,WeatherCatV1.24B11,2014-01-15 04:24:00,
2014-01-14 23:29:00,34.8,33.8,29.60,SW,223,0.0,0.0,96,0.00,,,0.03,0,WeatherCatV1.24B11,2014-01-15 04:29:00,
2014-01-14 23:34:00,34.7,33.7,29.60,SW,223,0.0,0.0,96,0.00,,,0.03,0,WeatherCatV1.24B11,2014-01-15 04:34:00,
2014-01-14 23:39:00,34.7,33.7,29.60,SW,223,0.0,0.0,96,0.00,,,0.03,0,WeatherCatV1.24B11,2014-01-15 04:39:00,
2014-01-14 23:44:00,34.6,33.6,29.60,SW,223,0.0,0.0,96,0.00,,,0.03,0,WeatherCatV1.24B11,2014-01-15 04:44:00,
2014-01-14 23:49:00,34.6,33.6,29.61,SW,223,0.0,0.0,96,0.00,,,0.03,0,WeatherCatV1.24B11,2014-01-15 04:49:00,
2014-01-14 23:54:00,34.6,33.6,29.61,SW,223,0.0,0.0,96,0.00,,,0.03,0,WeatherCatV1.24B11,2014-01-15 04:54:00,
2014-01-14 23:59:00,34.5,33.5,29.61,SW,223,0.0,0.0,96,0.00,,,0.03,0,WeatherCatV1.24B11,2014-01-15 04:59:00,